Time;durP1;ratioP1;P1;durP2;ratioP2;P2;SDS_P1;SDS_P2;PMS_P1;PMS_P2;Temp;Humidity;BMP_temperature;BMP_pressure;BME280_temperature;BME280_humidity;BME280_pressure;Samples;Min_cycle;Max_cycle;Signal;HPM_P1;HPM_P2
2023/05/12 00:00:29;;;;;;;3.25;1.88;;;11.50;99.90;;;;;;5014747;28;20041;-68
2023/05/12 00:02:54;;;;;;;4.50;2.00;;;11.50;99.90;;;;;;5027640;28;20115;-76
2023/05/12 00:05:20;;;;;;;4.33;2.70;;;11.40;99.90;;;;;;5019173;28;20248;-70
2023/05/12 00:07:45;;;;;;;4.03;2.10;;;11.50;99.90;;;;;;5017078;28;20065;-68
2023/05/12 00:10:11;;;;;;;4.63;2.47;;;11.50;99.90;;;;;;5016843;28;20818;-68
2023/05/12 00:12:39;;;;;;;5.77;2.70;;;11.50;99.90;;;;;;5013075;28;20026;-67
2023/05/12 00:15:05;;;;;;;5.00;2.50;;;11.50;99.90;;;;;;5016768;28;20162;-68
2023/05/12 00:17:31;;;;;;;;;;;11.50;99.90;;;;;;5029158;28;20163;-68
2023/05/12 00:19:57;;;;;;;4.72;2.30;;;11.50;99.90;;;;;;5023160;28;19921;-68
2023/05/12 00:22:22;;;;;;;4.07;2.00;;;11.50;99.90;;;;;;5016421;28;20467;-68
2023/05/12 00:24:50;;;;;;;4.30;2.30;;;11.50;99.90;;;;;;5025030;28;20032;-68
2023/05/12 00:27:15;;;;;;;6.22;2.42;;;11.50;99.90;;;;;;5017968;28;20052;-68
2023/05/12 00:29:41;;;;;;;4.47;2.67;;;11.60;99.90;;;;;;5017085;28;20107;-68
2023/05/12 00:32:17;;;;;;;5.17;2.70;;;11.50;99.90;;;;;;5035011;23;20049;-94
2023/05/12 00:34:45;;;;;;;4.85;2.60;;;11.50;99.90;;;;;;5032555;28;20916;-91
2023/05/12 00:39:38;;;;;;;6.22;3.47;;;11.60;99.90;;;;;;5048078;28;20075;-75
2023/05/12 00:42:10;;;;;;;6.50;3.27;;;11.60;99.90;;;;;;5039542;28;20091;-78
2023/05/12 00:44:39;;;;;;;6.15;2.75;;;11.60;99.90;;;;;;5034811;28;20422;-77
2023/05/12 00:47:05;;;;;;;7.88;3.28;;;11.60;99.90;;;;;;5038907;28;20048;-75
2023/05/12 00:49:31;;;;;;;7.63;4.03;;;11.60;99.90;;;;;;5043564;28;20095;-79
2023/05/12 00:51:57;;;;;;;8.02;3.45;;;11.60;99.90;;;;;;5033370;28;20449;-69
2023/05/12 00:54:25;;;;;;;8.27;3.80;;;11.60;99.90;;;;;;5033445;28;20038;-69
2023/05/12 00:56:50;;;;;;;7.35;4.32;;;11.60;99.90;;;;;;5036466;28;20103;-69
2023/05/12 00:59:16;;;;;;;10.13;5.33;;;11.60;99.90;;;;;;5026208;28;20053;-69
2023/05/12 01:01:42;;;;;;;10.38;5.50;;;11.60;99.90;;;;;;5028986;28;20053;-69
2023/05/12 01:04:08;;;;;;;8.35;4.85;;;11.60;99.90;;;;;;5030597;28;20100;-69
2023/05/12 01:06:49;;;;;;;12.07;5.35;;;11.50;99.90;;;;;;5034377;28;20070;-69
2023/05/12 01:09:16;;;;;;;8.98;5.20;;;11.60;99.90;;;;;;5038237;28;20052;-69
2023/05/12 01:11:41;;;;;;;10.45;5.82;;;11.60;99.90;;;;;;5034690;28;20625;-69
2023/05/12 01:14:07;;;;;;;12.23;5.63;;;11.60;99.90;;;;;;5034897;28;20184;-69
2023/05/12 01:16:44;;;;;;;13.63;6.60;;;11.60;99.90;;;;;;5030688;28;20045;-69
2023/05/12 01:19:24;;;;;;;14.82;6.72;;;11.60;99.90;;;;;;5037586;28;20080;-70
2023/05/12 01:21:49;;;;;;;13.63;6.63;;;11.60;99.90;;;;;;5033879;28;20395;-70
2023/05/12 01:24:17;;;;;;;16.88;6.97;;;11.60;99.90;;;;;;5029171;28;20045;-70
2023/05/12 01:26:43;;;;;;;14.02;6.72;;;11.70;99.90;;;;;;5028694;28;20084;-69
2023/05/12 01:29:09;;;;;;;12.75;6.45;;;11.60;99.90;;;;;;5032781;28;20072;-69
2023/05/12 01:31:35;;;;;;;;;;;11.60;99.90;;;;;;5038920;28;20040;-69
2023/05/12 01:34:00;;;;;;;12.07;6.63;;;11.60;99.90;;;;;;5032713;28;20082;-69
2023/05/12 01:36:26;;;;;;;12.10;6.93;;;11.70;99.90;;;;;;5038607;28;20068;-69
2023/05/12 01:38:52;;;;;;;9.30;5.70;;;11.60;99.90;;;;;;5039318;28;20048;-78
2023/05/12 01:41:20;;;;;;;14.90;6.47;;;11.60;99.90;;;;;;5043948;28;20571;-79
2023/05/12 01:43:45;;;;;;;13.98;7.60;;;11.60;99.90;;;;;;5032979;28;20050;-79
2023/05/12 01:46:14;;;;;;;19.75;7.07;;;11.60;99.90;;;;;;5055536;28;20041;-80
2023/05/12 01:48:39;;;;;;;15.43;7.07;;;11.70;99.90;;;;;;5020823;28;20043;-70
2023/05/12 01:51:10;;;;;;;15.20;7.85;;;11.60;99.90;;;;;;5043378;28;20115;-79
2023/05/12 01:53:35;;;;;;;16.20;7.80;;;11.70;99.90;;;;;;5043711;28;20037;-69
2023/05/12 01:56:01;;;;;;;19.03;8.13;;;11.60;99.90;;;;;;5034730;28;20399;-69
2023/05/12 01:58:27;;;;;;;15.83;7.80;;;11.70;99.90;;;;;;5030747;28;20135;-69
2023/05/12 02:00:52;;;;;;;15.40;7.67;;;11.70;99.90;;;;;;5029229;28;20068;-69
2023/05/12 02:03:20;;;;;;;16.53;7.37;;;11.70;99.90;;;;;;5037102;28;20060;-69
2023/05/12 02:05:46;;;;;;;17.33;7.88;;;11.70;99.90;;;;;;5039544;28;20053;-69
2023/05/12 02:08:11;;;;;;;18.07;8.03;;;11.70;99.90;;;;;;5038619;28;20040;-69
2023/05/12 02:10:37;;;;;;;21.27;8.60;;;11.70;99.90;;;;;;5032785;28;20621;-69
2023/05/12 02:13:03;;;;;;;14.20;7.80;;;11.70;99.90;;;;;;5037864;28;20045;-69
2023/05/12 02:15:28;;;;;;;18.17;8.40;;;11.70;99.90;;;;;;5030385;28;20156;-69
2023/05/12 02:17:54;;;;;;;19.63;9.02;;;11.70;99.90;;;;;;5039487;28;20080;-69
2023/05/12 02:20:19;;;;;;;20.87;9.33;;;11.70;99.90;;;;;;5035196;28;20462;-68
2023/05/12 02:22:45;;;;;;;23.00;10.03;;;11.80;99.90;;;;;;5035586;28;20056;-70
2023/05/12 02:25:11;;;;;;;22.40;9.53;;;11.80;99.90;;;;;;5033198;28;20293;-70
2023/05/12 02:27:39;;;;;;;18.40;8.87;;;11.70;99.90;;;;;;5032331;28;20041;-69
2023/05/12 02:30:05;;;;;;;17.92;8.32;;;11.70;99.90;;;;;;5027271;28;20286;-70
2023/05/12 02:32:31;;;;;;;;;;;11.70;99.90;;;;;;5015140;28;20045;-70
2023/05/12 02:34:57;;;;;;;22.90;9.63;;;11.80;99.90;;;;;;5039465;28;19921;-69
2023/05/12 02:37:22;;;;;;;24.73;9.90;;;11.70;99.90;;;;;;5026917;28;20300;-69
2023/05/12 02:39:48;;;;;;;28.95;11.18;;;11.80;99.90;;;;;;5046087;28;20585;-70
2023/05/12 02:42:14;;;;;;;22.10;10.95;;;11.80;99.90;;;;;;5030499;28;20559;-70
2023/05/12 02:44:40;;;;;;;26.60;11.85;;;11.80;99.90;;;;;;5031659;28;20044;-70
2023/05/12 02:47:05;;;;;;;26.60;10.67;;;11.80;99.90;;;;;;5039149;28;20049;-69
2023/05/12 02:49:31;;;;;;;24.67;11.07;;;11.80;99.90;;;;;;5036188;28;20483;-70
2023/05/12 02:51:57;;;;;;;29.20;11.40;;;11.80;99.90;;;;;;5039669;28;20424;-70
2023/05/12 02:54:22;;;;;;;28.47;11.80;;;11.80;99.90;;;;;;5030676;28;20073;-69
2023/05/12 02:56:48;;;;;;;20.77;10.33;;;11.80;99.90;;;;;;5029286;28;20363;-69
2023/05/12 02:59:14;;;;;;;29.60;11.27;;;11.80;99.90;;;;;;5032185;28;20039;-69
2023/05/12 03:01:39;;;;;;;26.55;12.02;;;11.80;99.90;;;;;;5034216;28;20037;-70
2023/05/12 03:04:05;;;;;;;30.87;11.97;;;11.80;99.90;;;;;;5033776;28;20033;-70
2023/05/12 03:06:31;;;;;;;24.43;11.33;;;11.90;99.90;;;;;;5027994;28;20056;-70
2023/05/12 03:08:56;;;;;;;26.33;11.77;;;11.80;99.90;;;;;;5035168;28;20037;-70
2023/05/12 03:11:22;;;;;;;24.70;12.03;;;11.90;99.90;;;;;;5037411;28;20789;-70
2023/05/12 03:13:48;;;;;;;30.13;12.37;;;11.80;99.90;;;;;;5035036;28;20289;-69
2023/05/12 03:16:15;;;;;;;25.27;11.97;;;11.90;99.90;;;;;;5034447;28;20073;-70
2023/05/12 03:18:41;;;;;;;25.60;12.38;;;11.90;99.90;;;;;;5033607;28;20378;-69
2023/05/12 03:21:07;;;;;;;26.15;12.88;;;11.80;99.90;;;;;;5031578;28;20091;-69
2023/05/12 03:23:32;;;;;;;34.38;11.88;;;11.90;99.90;;;;;;5039928;28;20479;-69
2023/05/12 03:25:58;;;;;;;29.47;13.57;;;11.90;99.90;;;;;;5025199;28;20064;-70
2023/05/12 03:28:24;;;;;;;30.10;13.03;;;11.90;99.90;;;;;;5044704;28;20075;-70
2023/05/12 03:30:49;;;;;;;31.95;13.13;;;11.90;99.90;;;;;;5039238;28;20053;-70
2023/05/12 03:33:15;;;;;;;34.40;12.73;;;11.90;99.90;;;;;;5041909;28;20490;-70
2023/05/12 03:35:41;;;;;;;29.50;11.77;;;12.00;99.90;;;;;;5035521;28;20052;-69
2023/05/12 03:38:07;;;;;;;24.33;12.02;;;11.90;99.90;;;;;;5033191;28;20400;-69
2023/05/12 03:40:32;;;;;;;30.73;11.87;;;11.90;99.90;;;;;;5040927;28;20040;-70
2023/05/12 03:42:58;;;;;;;33.27;13.33;;;11.90;99.90;;;;;;5042111;28;20487;-70
2023/05/12 03:45:23;;;;;;;27.80;11.97;;;11.90;99.90;;;;;;5040680;28;21040;-70
2023/05/12 03:47:49;;;;;;;30.47;11.87;;;11.90;99.90;;;;;;5042477;28;20041;-70
2023/05/12 03:50:15;;;;;;;29.00;11.93;;;11.90;99.90;;;;;;5041706;28;20029;-70
2023/05/12 03:52:40;;;;;;;27.40;12.45;;;12.00;99.90;;;;;;5035797;28;20072;-70
2023/05/12 03:55:06;;;;;;;27.57;11.63;;;12.00;99.90;;;;;;5039765;28;20063;-70
2023/05/12 03:57:33;;;;;;;24.77;11.38;;;12.00;99.90;;;;;;5033379;28;20289;-70
2023/05/12 03:59:58;;;;;;;;;;;12.00;99.90;;;;;;5034723;28;20046;-70
2023/05/12 04:02:25;;;;;;;24.40;10.68;;;12.00;99.90;;;;;;5032776;28;20559;-69
2023/05/12 04:04:50;;;;;;;27.85;12.07;;;12.00;99.90;;;;;;5038018;28;20103;-70
2023/05/12 04:07:16;;;;;;;30.08;12.95;;;12.00;99.90;;;;;;5035439;28;20367;-70
2023/05/12 04:09:42;;;;;;;27.53;12.30;;;12.10;99.90;;;;;;5042633;28;20084;-70
2023/05/12 04:12:08;;;;;;;;;;;12.10;99.90;;;;;;5048561;28;20112;-70
2023/05/12 04:14:34;;;;;;;24.63;12.00;;;12.10;99.90;;;;;;5033712;28;20492;-70
2023/05/12 04:17:00;;;;;;;31.67;12.13;;;12.00;99.90;;;;;;5043801;28;20045;-69
2023/05/12 04:19:25;;;;;;;29.15;12.10;;;12.10;99.90;;;;;;5040714;28;20037;-70
2023/05/12 04:21:52;;;;;;;25.10;12.55;;;12.00;99.90;;;;;;5040408;28;20430;-69
2023/05/12 04:24:17;;;;;;;31.95;12.20;;;12.10;99.90;;;;;;5030194;28;20046;-69
2023/05/12 04:26:46;;;;;;;25.57;11.83;;;12.10;99.90;;;;;;5039620;28;20041;-69
2023/05/12 04:29:12;;;;;;;31.85;12.50;;;12.10;99.90;;;;;;5033410;28;20090;-69
2023/05/12 04:31:37;;;;;;;29.05;12.95;;;12.10;99.90;;;;;;5031771;28;20154;-70
2023/05/12 04:34:03;;;;;;;27.47;12.33;;;12.10;99.90;;;;;;5038386;28;20119;-70
2023/05/12 04:36:29;;;;;;;29.92;11.85;;;12.20;99.90;;;;;;5036747;28;20376;-70
2023/05/12 04:38:54;;;;;;;24.10;11.80;;;12.10;99.90;;;;;;5037455;28;20045;-70
2023/05/12 04:41:21;;;;;;;28.23;11.93;;;12.20;99.90;;;;;;5028092;28;20612;-70
2023/05/12 04:43:46;;;;;;;25.70;11.90;;;12.20;99.90;;;;;;5029335;28;20563;-70
2023/05/12 04:46:12;;;;;;;27.85;11.70;;;12.20;99.90;;;;;;5034510;28;20083;-69
2023/05/12 04:48:40;;;;;;;29.10;11.67;;;12.20;99.90;;;;;;5036605;28;20083;-69
2023/05/12 04:51:06;;;;;;;25.33;11.10;;;12.20;99.90;;;;;;5034155;28;20294;-69
2023/05/12 04:53:33;;;;;;;26.15;12.25;;;12.20;99.90;;;;;;5033442;28;20037;-70
2023/05/12 04:55:59;;;;;;;29.83;12.85;;;12.30;99.90;;;;;;5035962;28;20049;-70
2023/05/12 04:58:25;;;;;;;27.83;10.80;;;12.30;99.90;;;;;;5040933;28;20514;-69
2023/05/12 05:00:51;;;;;;;27.85;11.55;;;12.30;99.90;;;;;;5040463;28;20081;-69
2023/05/12 05:03:17;;;;;;;25.63;11.38;;;12.30;99.90;;;;;;5030937;28;20576;-69
2023/05/12 05:05:43;;;;;;;27.30;12.05;;;12.30;99.90;;;;;;5032496;28;20044;-69
2023/05/12 05:08:08;;;;;;;27.55;11.50;;;12.30;99.90;;;;;;5045108;28;20040;-68
2023/05/12 05:10:34;;;;;;;31.50;12.32;;;12.30;99.90;;;;;;5023994;28;20037;-69
2023/05/12 05:13:00;;;;;;;36.80;12.65;;;12.40;99.90;;;;;;5045314;28;20040;-69
2023/05/12 05:15:26;;;;;;;24.73;11.85;;;12.40;99.90;;;;;;5041141;28;20075;-69
2023/05/12 05:17:51;;;;;;;26.50;11.48;;;12.40;99.90;;;;;;5034701;28;20272;-69
2023/05/12 05:20:17;;;;;;;30.08;11.32;;;12.40;99.90;;;;;;5026297;28;20033;-69
2023/05/12 05:22:45;;;;;;;32.05;11.90;;;12.40;99.90;;;;;;5030432;28;20043;-69
2023/05/12 05:25:12;;;;;;;31.80;12.53;;;12.50;99.90;;;;;;5035815;28;20032;-68
2023/05/12 05:27:37;;;;;;;30.52;12.32;;;12.50;99.90;;;;;;5034062;28;20293;-69
2023/05/12 05:30:06;;;;;;;31.60;12.53;;;12.60;99.90;;;;;;5042659;28;20495;-69
2023/05/12 05:32:34;;;;;;;28.05;12.90;;;12.60;99.90;;;;;;5025409;28;20300;-69
2023/05/12 05:35:00;;;;;;;34.10;12.75;;;12.70;99.90;;;;;;5042650;28;20040;-69
2023/05/12 05:37:26;;;;;;;30.23;11.80;;;12.60;99.90;;;;;;5033048;28;20047;-69
2023/05/12 05:39:51;;;;;;;28.75;12.57;;;12.60;99.90;;;;;;5037222;28;20308;-69
2023/05/12 05:42:17;;;;;;;28.00;12.50;;;12.70;99.90;;;;;;5039218;28;20477;-69
2023/05/12 05:44:43;;;;;;;32.38;12.00;;;12.70;99.90;;;;;;5040534;28;20037;-69
2023/05/12 05:47:09;;;;;;;28.58;12.75;;;12.70;99.90;;;;;;5025445;28;20502;-69
2023/05/12 05:49:35;;;;;;;34.03;12.77;;;12.70;99.90;;;;;;5017203;28;20037;-70
2023/05/12 05:52:01;;;;;;;29.33;12.75;;;12.70;99.90;;;;;;5035086;28;20033;-69
2023/05/12 05:54:26;;;;;;;29.80;11.67;;;12.80;99.90;;;;;;5026082;28;20079;-70
2023/05/12 05:56:52;;;;;;;27.08;13.77;;;12.80;99.90;;;;;;5035042;28;20112;-71
2023/05/12 05:59:17;;;;;;;25.17;12.03;;;12.80;99.90;;;;;;5036964;28;20067;-70
2023/05/12 06:01:44;;;;;;;27.53;12.93;;;12.90;99.90;;;;;;5043194;28;20040;-74
2023/05/12 06:04:10;;;;;;;;;;;12.80;99.90;;;;;;5040600;28;20052;-70
2023/05/12 06:06:35;;;;;;;31.65;13.18;;;12.90;99.90;;;;;;5033700;28;19978;-71
2023/05/12 06:09:01;;;;;;;25.63;12.50;;;12.90;99.90;;;;;;5033270;28;20039;-71
2023/05/12 06:11:26;;;;;;;25.93;11.60;;;12.80;99.90;;;;;;5039647;28;20305;-70
2023/05/12 06:13:52;;;;;;;29.37;13.20;;;12.90;99.90;;;;;;5034074;28;20044;-69
2023/05/12 06:16:18;;;;;;;24.00;12.50;;;12.90;99.90;;;;;;5029593;28;20091;-69
2023/05/12 06:18:43;;;;;;;28.93;12.73;;;12.90;99.90;;;;;;5035902;28;20356;-69
2023/05/12 06:21:09;;;;;;;31.60;12.97;;;13.00;99.90;;;;;;5035541;28;20048;-69
2023/05/12 06:23:35;;;;;;;32.03;13.77;;;13.00;99.90;;;;;;5032671;28;20748;-69
2023/05/12 06:26:02;;;;;;;30.25;12.98;;;13.00;99.90;;;;;;5033319;28;20040;-69
2023/05/12 06:28:28;;;;;;;28.75;12.30;;;13.00;99.90;;;;;;5036992;28;20079;-69
2023/05/12 06:30:54;;;;;;;26.48;13.45;;;13.00;99.90;;;;;;5039225;28;20420;-69
2023/05/12 06:33:20;;;;;;;26.87;12.27;;;13.00;99.90;;;;;;5029544;28;20049;-69
2023/05/12 06:35:45;;;;;;;30.05;13.00;;;13.10;99.90;;;;;;5034199;28;20474;-71
2023/05/12 06:38:11;;;;;;;27.55;12.48;;;13.10;99.90;;;;;;5041711;28;20131;-69
2023/05/12 06:40:37;;;;;;;31.60;13.18;;;13.10;99.90;;;;;;5034208;28;20139;-69
2023/05/12 06:43:02;;;;;;;26.33;13.27;;;13.10;99.90;;;;;;5037483;28;20049;-69
2023/05/12 06:45:29;;;;;;;31.08;13.48;;;13.10;99.90;;;;;;5034070;28;20350;-69
2023/05/12 06:47:56;;;;;;;25.83;12.25;;;13.20;99.90;;;;;;5018702;28;20376;-69
2023/05/12 06:50:22;;;;;;;28.10;12.73;;;13.20;99.90;;;;;;5035292;28;20064;-69
2023/05/12 06:52:47;;;;;;;30.70;13.68;;;13.20;99.90;;;;;;5035930;28;20618;-69
2023/05/12 06:55:18;;;;;;;31.53;13.07;;;13.30;99.90;;;;;;5034589;28;20087;-69
2023/05/12 06:57:43;;;;;;;29.80;13.10;;;13.30;99.90;;;;;;5038975;28;20604;-69
2023/05/12 07:00:10;;;;;;;27.02;12.77;;;13.40;99.90;;;;;;5043172;28;20152;-69
2023/05/12 07:02:35;;;;;;;26.08;12.65;;;13.40;99.90;;;;;;5040904;28;20440;-69
2023/05/12 07:05:01;;;;;;;25.30;12.40;;;13.50;99.90;;;;;;5037773;28;20050;-69
2023/05/12 07:07:26;;;;;;;27.40;13.70;;;13.50;99.90;;;;;;5034363;28;20449;-69
2023/05/12 07:09:52;;;;;;;27.55;13.52;;;13.60;99.90;;;;;;5036123;28;20071;-69
2023/05/12 07:12:18;;;;;;;28.45;13.23;;;13.60;99.90;;;;;;5009616;28;20041;-69
2023/05/12 07:14:43;;;;;;;23.55;11.63;;;13.70;99.90;;;;;;5042370;28;20040;-69
2023/05/12 07:17:09;;;;;;;25.33;12.90;;;13.70;99.90;;;;;;5037734;28;20045;-69
2023/05/12 07:19:35;;;;;;;26.37;11.83;;;13.80;99.90;;;;;;5020514;28;20439;-69
2023/05/12 07:22:01;;;;;;;31.70;14.15;;;13.80;99.90;;;;;;5041618;28;20117;-69
2023/05/12 07:24:26;;;;;;;29.60;13.82;;;13.80;99.90;;;;;;5026231;28;20076;-69
2023/05/12 07:26:52;;;;;;;24.52;12.38;;;13.90;99.90;;;;;;5042983;28;20041;-69
2023/05/12 07:29:18;;;;;;;28.13;11.88;;;13.90;99.90;;;;;;5039138;28;20313;-69
2023/05/12 07:31:43;;;;;;;24.02;11.68;;;13.90;99.90;;;;;;5031875;28;20041;-69
2023/05/12 07:34:09;;;;;;;25.10;13.37;;;13.90;99.90;;;;;;5041818;28;20482;-68
2023/05/12 07:36:35;;;;;;;31.10;14.55;;;13.90;99.90;;;;;;5034995;28;20075;-69
2023/05/12 07:39:00;;;;;;;27.77;12.57;;;14.00;99.90;;;;;;5041318;28;20041;-69
2023/05/12 07:41:26;;;;;;;25.23;12.30;;;14.00;99.90;;;;;;5041913;28;20040;-69
2023/05/12 07:43:52;;;;;;;26.17;13.83;;;14.10;99.90;;;;;;5037644;28;20094;-69
2023/05/12 07:46:17;;;;;;;26.92;13.13;;;14.10;99.90;;;;;;5037515;28;20306;-69
2023/05/12 07:48:43;;;;;;;27.25;13.27;;;14.10;99.90;;;;;;5039642;28;20406;-69
2023/05/12 07:51:08;;;;;;;23.50;13.33;;;14.20;99.90;;;;;;5037051;28;20034;-69
2023/05/12 07:53:34;;;;;;;26.77;13.27;;;14.10;99.90;;;;;;5027621;28;20219;-68
2023/05/12 07:56:00;;;;;;;26.83;13.27;;;14.20;99.90;;;;;;5037803;28;20052;-70
2023/05/12 07:58:26;;;;;;;27.40;13.40;;;14.20;99.90;;;;;;5034092;28;20086;-69
2023/05/12 08:00:53;;;;;;;23.85;12.93;;;14.20;99.90;;;;;;5042178;28;20053;-69
2023/05/12 08:03:19;;;;;;;28.35;13.73;;;14.20;99.90;;;;;;5036954;28;20153;-69
2023/05/12 08:05:45;;;;;;;27.23;13.35;;;14.20;99.90;;;;;;5031778;28;20223;-69
2023/05/12 08:08:15;;;;;;;27.88;12.63;;;14.20;99.90;;;;;;5043934;28;20040;-69
2023/05/12 08:10:41;;;;;;;26.05;13.32;;;14.30;99.90;;;;;;5030298;28;20124;-69
2023/05/12 08:13:07;;;;;;;26.52;13.38;;;14.30;99.90;;;;;;5032555;28;20176;-69
2023/05/12 08:15:33;;;;;;;30.98;13.93;;;14.30;99.90;;;;;;5037345;28;20306;-69
2023/05/12 08:17:59;;;;;;;29.53;13.83;;;14.40;99.90;;;;;;5037016;28;20111;-69
2023/05/12 08:20:24;;;;;;;26.90;14.07;;;14.40;99.90;;;;;;5040797;28;20651;-68
2023/05/12 08:22:50;;;;;;;31.70;14.13;;;14.50;99.90;;;;;;5031472;28;20123;-68
2023/05/12 08:25:15;;;;;;;23.93;13.90;;;14.60;99.90;;;;;;5018387;28;21058;-68
2023/05/12 08:27:41;;;;;;;30.33;14.47;;;14.60;99.90;;;;;;5042409;28;20349;-68
2023/05/12 08:30:08;;;;;;;24.52;14.18;;;14.70;99.90;;;;;;5030193;28;20049;-68
2023/05/12 08:32:34;;;;;;;37.78;15.02;;;14.80;99.90;;;;;;5033214;28;20128;-69
2023/05/12 08:35:00;;;;;;;29.27;14.63;;;14.90;99.90;;;;;;5016693;28;20495;-68
2023/05/12 08:37:26;;;;;;;30.13;15.55;;;15.00;99.90;;;;;;5019877;28;20052;-68
2023/05/12 08:39:52;;;;;;;27.50;14.95;;;15.10;99.90;;;;;;5034312;28;20056;-68
2023/05/12 08:42:33;;;;;;;28.13;14.43;;;15.30;99.90;;;;;;5018812;28;20326;-68
2023/05/12 08:44:59;;;;;;;26.52;14.82;;;15.40;99.90;;;;;;5038188;28;20083;-68
2023/05/12 08:47:26;;;;;;;27.02;13.85;;;15.60;99.90;;;;;;5039276;28;20639;-68
2023/05/12 08:50:00;;;;;;;26.25;14.18;;;15.70;99.90;;;;;;5038038;28;20478;-77
2023/05/12 08:52:29;;;;;;;27.70;14.45;;;15.80;99.90;;;;;;5040690;28;20406;-68
2023/05/12 08:54:55;;;;;;;31.45;15.52;;;15.90;99.90;;;;;;5030978;28;20041;-68
2023/05/12 08:57:22;;;;;;;24.30;14.75;;;16.00;99.90;;;;;;5040318;28;20044;-68
2023/05/12 08:59:48;;;;;;;25.85;14.07;;;16.20;99.90;;;;;;5030942;28;20123;-68
2023/05/12 09:02:16;;;;;;;25.27;14.55;;;16.20;99.90;;;;;;5035363;28;20045;-68
2023/05/12 09:04:41;;;;;;;23.83;14.18;;;16.30;99.90;;;;;;5034960;28;20060;-68
2023/05/12 09:07:07;;;;;;;26.42;13.98;;;16.40;99.90;;;;;;5030152;28;20048;-68
2023/05/12 09:09:35;;;;;;;27.63;14.38;;;16.40;99.90;;;;;;5018198;28;20130;-69
2023/05/12 09:12:02;;;;;;;25.08;14.90;;;16.50;99.90;;;;;;5034102;28;20505;-68
2023/05/12 09:14:29;;;;;;;;;;;16.60;99.90;;;;;;5039568;28;20045;-68
2023/05/12 09:17:01;;;;;;;29.33;15.10;;;16.70;99.90;;;;;;5032366;28;19927;-68
2023/05/12 09:19:27;;;;;;;25.40;14.75;;;16.80;99.90;;;;;;5036430;28;20067;-68
2023/05/12 09:21:53;;;;;;;;;;;16.90;99.90;;;;;;5038190;28;22829;-68
2023/05/12 09:24:18;;;;;;;24.65;13.65;;;17.10;99.90;;;;;;5037871;28;20000;-68
2023/05/12 09:26:54;;;;;;;26.75;15.60;;;17.10;99.90;;;;;;5039244;28;20045;-68
2023/05/12 09:29:20;;;;;;;23.13;15.27;;;17.20;99.90;;;;;;5026981;28;20156;-68
2023/05/12 09:31:55;;;;;;;25.05;14.73;;;17.40;99.90;;;;;;5024439;28;20456;-69
2023/05/12 09:34:29;;;;;;;22.08;14.80;;;17.50;99.90;;;;;;5035185;28;20041;-69
2023/05/12 09:37:00;;;;;;;25.88;14.88;;;17.60;99.90;;;;;;5039290;28;20041;-68
2023/05/12 09:39:27;;;;;;;22.02;13.88;;;17.70;99.90;;;;;;5017945;28;20040;-68
2023/05/12 09:41:53;;;;;;;24.30;13.68;;;17.80;99.90;;;;;;5036734;28;20086;-68
2023/05/12 09:44:20;;;;;;;21.40;12.98;;;17.80;99.90;;;;;;5038733;28;20044;-68
2023/05/12 09:46:46;;;;;;;21.00;13.02;;;17.90;99.90;;;;;;5033136;28;20364;-68
2023/05/12 09:49:16;;;;;;;23.67;13.15;;;18.00;99.90;;;;;;5029601;28;20132;-68
2023/05/12 09:51:42;;;;;;;18.70;12.50;;;18.10;99.90;;;;;;5031450;28;20359;-68
2023/05/12 09:54:08;;;;;;;18.40;11.70;;;18.20;99.90;;;;;;5030319;28;20045;-68
2023/05/12 09:56:36;;;;;;;21.23;13.07;;;18.30;99.90;;;;;;5024228;28;20215;-68
2023/05/12 09:59:04;;;;;;;21.65;12.98;;;18.40;99.90;;;;;;5030719;28;20139;-68
2023/05/12 10:01:30;;;;;;;22.35;13.85;;;18.50;99.90;;;;;;5028042;28;20043;-68
2023/05/12 10:03:57;;;;;;;20.42;12.77;;;18.50;99.90;;;;;;5032477;28;20513;-68
2023/05/12 10:06:36;;;;;;;18.50;12.05;;;18.60;99.90;;;;;;5031195;28;20045;-68
2023/05/12 10:09:19;;;;;;;19.25;12.20;;;18.70;99.90;;;;;;5037207;28;20517;-68
2023/05/12 10:11:46;;;;;;;16.23;11.05;;;18.80;99.90;;;;;;5033274;28;20045;-68
2023/05/12 10:14:12;;;;;;;17.08;11.68;;;18.90;99.90;;;;;;5034024;28;20419;-68
2023/05/12 10:16:39;;;;;;;19.48;11.90;;;19.00;99.90;;;;;;5018199;28;20055;-68
2023/05/12 10:19:05;;;;;;;15.70;10.88;;;19.10;99.90;;;;;;5039035;28;20040;-68
2023/05/12 10:21:31;;;;;;;;;;;19.20;99.90;;;;;;5033679;28;20151;-69
2023/05/12 10:23:58;;;;;;;17.40;10.55;;;19.30;99.90;;;;;;5033651;28;19978;-68
2023/05/12 10:26:24;;;;;;;18.05;11.50;;;19.40;99.90;;;;;;5040689;28;20303;-68
2023/05/12 10:28:51;;;;;;;16.92;10.65;;;19.50;99.90;;;;;;5027054;28;20060;-68
2023/05/12 10:31:18;;;;;;;17.40;12.05;;;19.60;99.90;;;;;;5035143;28;20455;-68
2023/05/12 10:33:58;;;;;;;16.83;11.45;;;19.70;99.90;;;;;;5037044;28;20117;-69
2023/05/12 10:36:24;;;;;;;18.60;11.30;;;19.80;99.90;;;;;;5032231;28;20045;-68
2023/05/12 10:38:49;;;;;;;14.40;10.10;;;19.90;99.90;;;;;;5033415;28;20037;-68
2023/05/12 10:41:16;;;;;;;21.05;9.82;;;20.00;99.90;;;;;;5027744;28;20060;-68
2023/05/12 10:43:43;;;;;;;;;;;20.00;99.90;;;;;;5051214;28;20040;-69
2023/05/12 10:46:19;;;;;;;15.55;9.27;;;20.20;99.90;;;;;;5034650;28;20405;-68
2023/05/12 10:48:57;;;;;;;15.30;9.40;;;20.30;99.90;;;;;;5041687;28;20116;-68
2023/05/12 10:51:28;;;;;;;16.70;10.93;;;20.40;99.90;;;;;;5032775;28;20445;-72
2023/05/12 10:54:06;;;;;;;18.60;10.48;;;20.50;99.90;;;;;;5035833;28;20045;-69
2023/05/12 10:56:38;;;;;;;13.07;9.70;;;20.60;99.90;;;;;;5022950;28;20511;-68
2023/05/12 10:59:18;;;;;;;14.30;10.25;;;20.70;99.90;;;;;;5033969;28;20498;-69
2023/05/12 11:01:56;;;;;;;13.43;10.43;;;20.70;99.90;;;;;;5034451;28;20057;-68
2023/05/12 11:04:24;;;;;;;16.13;9.73;;;20.80;99.90;;;;;;5031324;28;20044;-69
2023/05/12 11:06:58;;;;;;;15.35;9.95;;;20.90;99.90;;;;;;5029269;28;20494;-69
2023/05/12 11:09:24;;;;;;;13.55;9.93;;;21.00;99.90;;;;;;5020347;28;20503;-69
2023/05/12 11:11:50;;;;;;;12.85;9.48;;;21.20;99.90;;;;;;5032687;28;20123;-68
2023/05/12 11:14:16;;;;;;;15.70;10.38;;;21.20;99.90;;;;;;5030199;28;20145;-68
2023/05/12 11:16:43;;;;;;;12.95;9.30;;;21.30;99.90;;;;;;5031911;28;20052;-68
2023/05/12 11:19:09;;;;;;;12.13;8.63;;;21.30;99.90;;;;;;5015998;28;20041;-69
2023/05/12 11:21:35;;;;;;;13.10;8.07;;;21.30;99.90;;;;;;5033317;28;20140;-68
2023/05/12 11:24:01;;;;;;;14.10;9.38;;;21.30;99.90;;;;;;5029793;28;20499;-69
2023/05/12 11:26:28;;;;;;;;;;;21.40;99.90;;;;;;5039403;28;20039;-69
2023/05/12 11:28:55;;;;;;;13.77;9.93;;;21.50;99.90;;;;;;5040065;28;19931;-68
2023/05/12 11:31:22;;;;;;;13.65;9.52;;;21.50;99.90;;;;;;5036612;28;20085;-68
2023/05/12 11:33:48;;;;;;;15.95;9.05;;;21.60;99.90;;;;;;5036811;28;20048;-69
2023/05/12 11:36:19;;;;;;;14.27;10.30;;;21.70;99.90;;;;;;5038965;28;20048;-68
2023/05/12 11:38:50;;;;;;;13.93;9.57;;;21.70;99.90;;;;;;5051694;28;20045;-68
2023/05/12 11:41:22;;;;;;;16.10;9.93;;;21.80;99.90;;;;;;5031940;28;20056;-69
2023/05/12 11:43:47;;;;;;;16.83;9.48;;;21.80;99.90;;;;;;5032237;28;20144;-68
2023/05/12 11:46:22;;;;;;;;;;;22.00;99.90;;;;;;5044204;28;20888;-69
2023/05/12 11:48:54;;;;;;;9.38;6.47;;;22.00;99.90;;;;;;5021445;28;19999;-68
2023/05/12 11:51:20;;;;;;;10.88;5.57;;;22.20;99.90;;;;;;5040447;28;20041;-68
2023/05/12 11:53:45;;;;;;;;;;;22.30;99.90;;;;;;5043056;28;20128;-68
2023/05/12 11:56:18;;;;;;;9.52;6.40;;;22.30;99.90;;;;;;5044571;28;19916;-68
2023/05/12 11:58:55;;;;;;;10.75;6.32;;;22.30;99.90;;;;;;5038684;28;20055;-68
2023/05/12 12:01:21;;;;;;;8.98;6.07;;;22.40;99.90;;;;;;5042924;28;20376;-68
2023/05/12 12:03:48;;;;;;;9.55;5.95;;;22.50;99.90;;;;;;5041443;28;20045;-68
2023/05/12 12:06:14;;;;;;;10.55;7.07;;;22.60;99.90;;;;;;5044953;28;20163;-69
2023/05/12 12:08:56;;;;;;;;;;;22.50;99.90;;;;;;5042936;28;20550;-69
2023/05/12 12:11:27;;;;;;;10.38;6.32;;;22.40;99.90;;;;;;5031548;28;20048;-68
2023/05/12 12:13:56;;;;;;;11.82;7.18;;;22.20;99.90;;;;;;5035363;28;20486;-69
2023/05/12 12:16:30;;;;;;;9.73;5.90;;;22.20;99.90;;;;;;5035834;28;20463;-68
2023/05/12 12:18:56;;;;;;;10.20;5.78;;;22.30;99.90;;;;;;5035441;28;20541;-69
2023/05/12 12:21:25;;;;;;;8.25;5.03;;;22.50;99.90;;;;;;5029511;28;20128;-69
2023/05/12 12:23:51;;;;;;;6.57;4.50;;;22.60;99.90;;;;;;5028102;28;20047;-69
2023/05/12 12:26:19;;;;;;;;;;;22.80;99.90;;;;;;5022163;28;20037;-69
2023/05/12 12:28:45;;;;;;;5.45;3.58;;;22.90;99.90;;;;;;5037371;28;19920;-68
2023/05/12 12:31:11;;;;;;;5.53;3.95;;;23.00;99.90;;;;;;5037579;28;20383;-68
2023/05/12 12:33:37;;;;;;;;;;;23.10;99.90;;;;;;5053978;22;20417;-69
2023/05/12 12:36:03;;;;;;;7.63;3.70;;;23.20;99.90;;;;;;5039042;28;19951;-69